sensor_id;sensor_type;location;lat;lon;timestamp;temperature;humidity
14682;DHT22;7429;52.498;13.480;2023-01-31T00:02:12;4.00;99.90
14682;DHT22;7429;52.498;13.480;2023-01-31T00:05:15;4.00;99.90
14682;DHT22;7429;52.498;13.480;2023-01-31T00:08:20;4.00;99.90
14682;DHT22;7429;52.498;13.480;2023-01-31T00:11:25;3.90;99.90
14682;DHT22;7429;52.498;13.480;2023-01-31T00:14:30;4.00;99.90
14682;DHT22;7429;52.498;13.480;2023-01-31T00:17:35;3.90;99.90
14682;DHT22;7429;52.498;13.480;2023-01-31T00:20:39;3.90;99.90
14682;DHT22;7429;52.498;13.480;2023-01-31T00:23:49;3.90;99.90
14682;DHT22;7429;52.498;13.480;2023-01-31T00:26:53;4.00;99.90
14682;DHT22;7429;52.498;13.480;2023-01-31T00:30:01;3.90;99.90
14682;DHT22;7429;52.498;13.480;2023-01-31T00:33:05;3.90;99.90
14682;DHT22;7429;52.498;13.480;2023-01-31T00:36:11;3.90;99.90
14682;DHT22;7429;52.498;13.480;2023-01-31T00:39:16;3.90;99.90
14682;DHT22;7429;52.498;13.480;2023-01-31T00:42:19;3.90;99.90
14682;DHT22;7429;52.498;13.480;2023-01-31T00:45:27;3.90;99.90
14682;DHT22;7429;52.498;13.480;2023-01-31T00:48:33;3.90;99.90
14682;DHT22;7429;52.498;13.480;2023-01-31T00:51:37;3.90;99.90
14682;DHT22;7429;52.498;13.480;2023-01-31T00:54:40;3.90;99.90
14682;DHT22;7429;52.498;13.480;2023-01-31T00:57:46;3.90;99.90
14682;DHT22;7429;52.498;13.480;2023-01-31T01:00:50;4.00;99.90
14682;DHT22;7429;52.498;13.480;2023-01-31T01:03:55;4.00;99.90
14682;DHT22;7429;52.498;13.480;2023-01-31T01:07:01;4.00;99.90
14682;DHT22;7429;52.498;13.480;2023-01-31T01:10:13;4.00;99.90
14682;DHT22;7429;52.498;13.480;2023-01-31T01:13:16;4.10;99.90
14682;DHT22;7429;52.498;13.480;2023-01-31T01:16:23;4.10;99.90
14682;DHT22;7429;52.498;13.480;2023-01-31T01:19:27;4.10;99.90
14682;DHT22;7429;52.498;13.480;2023-01-31T01:22:30;4.20;99.90
14682;DHT22;7429;52.498;13.480;2023-01-31T01:25:41;4.20;99.90
14682;DHT22;7429;52.498;13.480;2023-01-31T01:28:46;4.20;99.90
14682;DHT22;7429;52.498;13.480;2023-01-31T01:31:51;4.20;99.90
14682;DHT22;7429;52.498;13.480;2023-01-31T01:34:54;4.20;99.90
14682;DHT22;7429;52.498;13.480;2023-01-31T01:37:58;4.20;99.90
14682;DHT22;7429;52.498;13.480;2023-01-31T01:41:04;4.20;99.90
14682;DHT22;7429;52.498;13.480;2023-01-31T01:47:51;4.20;99.90
14682;DHT22;7429;52.498;13.480;2023-01-31T01:50:56;4.20;99.90
14682;DHT22;7429;52.498;13.480;2023-01-31T01:54:04;4.10;99.90
14682;DHT22;7429;52.498;13.480;2023-01-31T01:57:12;4.20;99.90
14682;DHT22;7429;52.498;13.480;2023-01-31T02:00:20;4.20;99.90
14682;DHT22;7429;52.498;13.480;2023-01-31T02:03:28;4.20;99.90
14682;DHT22;7429;52.498;13.480;2023-01-31T02:06:34;4.20;99.90
14682;DHT22;7429;52.498;13.480;2023-01-31T02:09:43;4.20;99.90
14682;DHT22;7429;52.498;13.480;2023-01-31T02:12:48;4.20;99.90
14682;DHT22;7429;52.498;13.480;2023-01-31T02:15:52;4.20;99.90
14682;DHT22;7429;52.498;13.480;2023-01-31T02:18:58;4.20;99.90
14682;DHT22;7429;52.498;13.480;2023-01-31T02:22:13;4.10;99.90
14682;DHT22;7429;52.498;13.480;2023-01-31T02:25:52;4.20;99.90
14682;DHT22;7429;52.498;13.480;2023-01-31T02:29:31;4.20;99.90
14682;DHT22;7429;52.498;13.480;2023-01-31T02:32:48;4.20;99.90
14682;DHT22;7429;52.498;13.480;2023-01-31T02:36:05;4.20;99.90
14682;DHT22;7429;52.498;13.480;2023-01-31T02:39:21;4.30;99.90
14682;DHT22;7429;52.498;13.480;2023-01-31T02:42:37;4.20;99.90
14682;DHT22;7429;52.498;13.480;2023-01-31T02:45:51;4.20;99.90
14682;DHT22;7429;52.498;13.480;2023-01-31T02:49:11;4.20;99.90
14682;DHT22;7429;52.498;13.480;2023-01-31T02:52:44;4.20;99.90
14682;DHT22;7429;52.498;13.480;2023-01-31T02:55:56;4.20;99.90
14682;DHT22;7429;52.498;13.480;2023-01-31T02:59:21;4.10;99.90
14682;DHT22;7429;52.498;13.480;2023-01-31T03:02:30;4.10;99.90
14682;DHT22;7429;52.498;13.480;2023-01-31T03:05:37;4.00;99.90
14682;DHT22;7429;52.498;13.480;2023-01-31T03:08:44;3.90;99.90
14682;DHT22;7429;52.498;13.480;2023-01-31T03:11:50;3.90;99.90
14682;DHT22;7429;52.498;13.480;2023-01-31T03:15:06;3.80;99.90
14682;DHT22;7429;52.498;13.480;2023-01-31T03:18:24;3.70;99.90
14682;DHT22;7429;52.498;13.480;2023-01-31T03:21:35;3.70;99.90
14682;DHT22;7429;52.498;13.480;2023-01-31T03:24:42;3.60;99.90
14682;DHT22;7429;52.498;13.480;2023-01-31T03:27:51;3.60;99.90
14682;DHT22;7429;52.498;13.480;2023-01-31T03:31:04;3.50;99.90
14682;DHT22;7429;52.498;13.480;2023-01-31T03:34:11;3.50;99.90
14682;DHT22;7429;52.498;13.480;2023-01-31T03:37:22;3.50;99.90
14682;DHT22;7429;52.498;13.480;2023-01-31T03:40:32;3.40;99.90
14682;DHT22;7429;52.498;13.480;2023-01-31T03:43:48;3.40;99.90
14682;DHT22;7429;52.498;13.480;2023-01-31T03:46:58;3.40;99.90
14682;DHT22;7429;52.498;13.480;2023-01-31T03:50:06;3.40;99.90
14682;DHT22;7429;52.498;13.480;2023-01-31T03:53:17;3.40;99.90
14682;DHT22;7429;52.498;13.480;2023-01-31T03:56:28;3.40;99.90
14682;DHT22;7429;52.498;13.480;2023-01-31T03:59:39;3.40;99.90
14682;DHT22;7429;52.498;13.480;2023-01-31T04:02:48;3.40;99.90
14682;DHT22;7429;52.498;13.480;2023-01-31T04:05:54;3.40;99.90
14682;DHT22;7429;52.498;13.480;2023-01-31T04:08:59;3.30;99.90
14682;DHT22;7429;52.498;13.480;2023-01-31T04:12:03;3.30;99.90
14682;DHT22;7429;52.498;13.480;2023-01-31T04:15:07;3.30;99.90
14682;DHT22;7429;52.498;13.480;2023-01-31T04:18:12;3.30;99.90
14682;DHT22;7429;52.498;13.480;2023-01-31T04:21:15;3.30;99.90
14682;DHT22;7429;52.498;13.480;2023-01-31T04:24:19;3.30;99.90
14682;DHT22;7429;52.498;13.480;2023-01-31T04:27:23;3.30;99.90
14682;DHT22;7429;52.498;13.480;2023-01-31T04:30:26;3.30;99.90
14682;DHT22;7429;52.498;13.480;2023-01-31T04:33:29;3.40;99.90
14682;DHT22;7429;52.498;13.480;2023-01-31T04:36:32;3.40;99.90
14682;DHT22;7429;52.498;13.480;2023-01-31T04:39:37;3.40;99.90
14682;DHT22;7429;52.498;13.480;2023-01-31T04:42:40;3.40;99.90
14682;DHT22;7429;52.498;13.480;2023-01-31T04:45:43;3.30;99.90
14682;DHT22;7429;52.498;13.480;2023-01-31T04:48:46;3.30;99.90
14682;DHT22;7429;52.498;13.480;2023-01-31T04:51:49;3.30;99.90
14682;DHT22;7429;52.498;13.480;2023-01-31T04:54:53;3.30;99.90
14682;DHT22;7429;52.498;13.480;2023-01-31T04:57:57;3.30;99.90
14682;DHT22;7429;52.498;13.480;2023-01-31T05:00:59;3.40;99.90
14682;DHT22;7429;52.498;13.480;2023-01-31T05:04:03;3.40;99.90
14682;DHT22;7429;52.498;13.480;2023-01-31T05:07:06;3.30;99.90
14682;DHT22;7429;52.498;13.480;2023-01-31T05:10:11;3.30;99.90
14682;DHT22;7429;52.498;13.480;2023-01-31T05:13:16;3.30;99.90
14682;DHT22;7429;52.498;13.480;2023-01-31T05:16:19;3.40;99.90
14682;DHT22;7429;52.498;13.480;2023-01-31T05:19:22;3.40;99.90
14682;DHT22;7429;52.498;13.480;2023-01-31T05:22:25;3.40;99.90
14682;DHT22;7429;52.498;13.480;2023-01-31T05:25:30;3.40;99.90
14682;DHT22;7429;52.498;13.480;2023-01-31T05:28:33;3.40;99.90
14682;DHT22;7429;52.498;13.480;2023-01-31T05:31:37;3.40;99.90
14682;DHT22;7429;52.498;13.480;2023-01-31T05:34:40;3.30;99.90
14682;DHT22;7429;52.498;13.480;2023-01-31T05:37:47;3.40;99.90
14682;DHT22;7429;52.498;13.480;2023-01-31T05:41:14;3.50;99.90
14682;DHT22;7429;52.498;13.480;2023-01-31T05:44:18;3.50;99.90
14682;DHT22;7429;52.498;13.480;2023-01-31T05:47:21;3.50;99.90
14682;DHT22;7429;52.498;13.480;2023-01-31T05:50:25;3.60;99.90
14682;DHT22;7429;52.498;13.480;2023-01-31T05:53:28;3.60;99.90
14682;DHT22;7429;52.498;13.480;2023-01-31T05:56:33;3.60;99.90
14682;DHT22;7429;52.498;13.480;2023-01-31T05:59:36;3.70;99.90
14682;DHT22;7429;52.498;13.480;2023-01-31T06:02:41;3.80;99.90
14682;DHT22;7429;52.498;13.480;2023-01-31T06:05:48;3.80;99.90
14682;DHT22;7429;52.498;13.480;2023-01-31T06:08:51;3.80;99.90
14682;DHT22;7429;52.498;13.480;2023-01-31T06:11:56;3.90;99.90
14682;DHT22;7429;52.498;13.480;2023-01-31T06:15:03;3.90;99.90
14682;DHT22;7429;52.498;13.480;2023-01-31T06:18:09;3.90;99.90
14682;DHT22;7429;52.498;13.480;2023-01-31T06:21:12;3.90;99.90
14682;DHT22;7429;52.498;13.480;2023-01-31T06:24:19;4.00;99.90
14682;DHT22;7429;52.498;13.480;2023-01-31T06:27:23;3.90;99.90
14682;DHT22;7429;52.498;13.480;2023-01-31T06:30:27;4.00;99.90
14682;DHT22;7429;52.498;13.480;2023-01-31T06:33:30;4.00;99.90
14682;DHT22;7429;52.498;13.480;2023-01-31T06:36:47;4.00;99.90
14682;DHT22;7429;52.498;13.480;2023-01-31T06:39:51;4.00;99.90
14682;DHT22;7429;52.498;13.480;2023-01-31T06:42:56;4.00;99.90
14682;DHT22;7429;52.498;13.480;2023-01-31T06:46:00;4.10;99.90
14682;DHT22;7429;52.498;13.480;2023-01-31T06:49:03;4.10;99.90
14682;DHT22;7429;52.498;13.480;2023-01-31T06:52:09;4.10;99.90
14682;DHT22;7429;52.498;13.480;2023-01-31T06:55:15;4.10;99.90
14682;DHT22;7429;52.498;13.480;2023-01-31T06:58:20;4.10;99.90
14682;DHT22;7429;52.498;13.480;2023-01-31T07:01:23;4.10;99.90
14682;DHT22;7429;52.498;13.480;2023-01-31T07:04:27;4.10;99.90
14682;DHT22;7429;52.498;13.480;2023-01-31T07:07:31;4.10;99.90
14682;DHT22;7429;52.498;13.480;2023-01-31T07:10:34;4.10;99.90
14682;DHT22;7429;52.498;13.480;2023-01-31T07:13:38;4.10;99.90
14682;DHT22;7429;52.498;13.480;2023-01-31T07:16:41;4.20;99.90
14682;DHT22;7429;52.498;13.480;2023-01-31T07:19:44;4.20;99.90
14682;DHT22;7429;52.498;13.480;2023-01-31T07:22:53;4.20;99.90
14682;DHT22;7429;52.498;13.480;2023-01-31T07:25:57;4.20;99.90
14682;DHT22;7429;52.498;13.480;2023-01-31T07:29:04;4.20;99.90
14682;DHT22;7429;52.498;13.480;2023-01-31T07:32:08;4.20;99.90
14682;DHT22;7429;52.498;13.480;2023-01-31T07:35:12;4.20;99.90
14682;DHT22;7429;52.498;13.480;2023-01-31T07:38:15;4.20;99.90
14682;DHT22;7429;52.498;13.480;2023-01-31T07:41:18;4.20;99.90
14682;DHT22;7429;52.498;13.480;2023-01-31T07:44:22;4.20;99.90
14682;DHT22;7429;52.498;13.480;2023-01-31T07:47:26;4.20;99.90
14682;DHT22;7429;52.498;13.480;2023-01-31T07:50:31;4.30;99.90
14682;DHT22;7429;52.498;13.480;2023-01-31T07:53:36;4.20;99.90
14682;DHT22;7429;52.498;13.480;2023-01-31T07:56:42;4.20;99.90
14682;DHT22;7429;52.498;13.480;2023-01-31T07:59:47;4.30;99.90
14682;DHT22;7429;52.498;13.480;2023-01-31T08:02:52;4.20;99.90
14682;DHT22;7429;52.498;13.480;2023-01-31T08:06:14;4.30;99.90
14682;DHT22;7429;52.498;13.480;2023-01-31T08:09:17;4.30;99.90
14682;DHT22;7429;52.498;13.480;2023-01-31T08:12:20;4.30;99.90
14682;DHT22;7429;52.498;13.480;2023-01-31T08:15:24;4.40;99.90
14682;DHT22;7429;52.498;13.480;2023-01-31T08:18:56;4.40;99.90
14682;DHT22;7429;52.498;13.480;2023-01-31T08:22:09;4.40;99.90
14682;DHT22;7429;52.498;13.480;2023-01-31T08:25:14;4.50;99.90
14682;DHT22;7429;52.498;13.480;2023-01-31T08:28:21;4.50;99.90
14682;DHT22;7429;52.498;13.480;2023-01-31T08:31:26;4.50;99.90
14682;DHT22;7429;52.498;13.480;2023-01-31T08:34:30;4.60;99.90
14682;DHT22;7429;52.498;13.480;2023-01-31T08:37:33;4.60;99.90
14682;DHT22;7429;52.498;13.480;2023-01-31T08:40:36;4.60;99.90
14682;DHT22;7429;52.498;13.480;2023-01-31T08:43:39;4.60;99.90
14682;DHT22;7429;52.498;13.480;2023-01-31T08:46:58;4.60;99.90
14682;DHT22;7429;52.498;13.480;2023-01-31T08:50:04;4.60;99.90
14682;DHT22;7429;52.498;13.480;2023-01-31T08:53:22;4.60;99.90
14682;DHT22;7429;52.498;13.480;2023-01-31T08:56:26;4.60;99.90
14682;DHT22;7429;52.498;13.480;2023-01-31T08:59:32;4.60;99.90
14682;DHT22;7429;52.498;13.480;2023-01-31T09:02:42;4.60;99.90
14682;DHT22;7429;52.498;13.480;2023-01-31T09:05:47;4.60;99.90
14682;DHT22;7429;52.498;13.480;2023-01-31T09:08:50;4.60;99.90
14682;DHT22;7429;52.498;13.480;2023-01-31T09:11:54;4.60;99.90
14682;DHT22;7429;52.498;13.480;2023-01-31T09:14:57;4.70;99.90
14682;DHT22;7429;52.498;13.480;2023-01-31T09:18:06;4.70;99.90
14682;DHT22;7429;52.498;13.480;2023-01-31T09:21:13;4.70;99.90
14682;DHT22;7429;52.498;13.480;2023-01-31T09:24:18;4.70;99.90
14682;DHT22;7429;52.498;13.480;2023-01-31T09:27:22;4.70;99.90
14682;DHT22;7429;52.498;13.480;2023-01-31T09:30:28;4.70;99.90
14682;DHT22;7429;52.498;13.480;2023-01-31T09:33:33;4.70;99.90
14682;DHT22;7429;52.498;13.480;2023-01-31T09:36:37;4.80;99.90
14682;DHT22;7429;52.498;13.480;2023-01-31T09:39:41;4.80;99.90
14682;DHT22;7429;52.498;13.480;2023-01-31T09:42:44;4.80;99.90
14682;DHT22;7429;52.498;13.480;2023-01-31T09:45:51;4.90;99.90
14682;DHT22;7429;52.498;13.480;2023-01-31T09:48:58;4.90;99.90
14682;DHT22;7429;52.498;13.480;2023-01-31T09:52:09;4.90;99.90
14682;DHT22;7429;52.498;13.480;2023-01-31T09:55:20;5.00;99.90
14682;DHT22;7429;52.498;13.480;2023-01-31T09:58:32;5.10;99.90
14682;DHT22;7429;52.498;13.480;2023-01-31T10:01:45;5.10;99.90
14682;DHT22;7429;52.498;13.480;2023-01-31T10:05:05;5.10;99.90
14682;DHT22;7429;52.498;13.480;2023-01-31T10:08:38;5.20;99.90
14682;DHT22;7429;52.498;13.480;2023-01-31T10:11:51;5.30;99.90
14682;DHT22;7429;52.498;13.480;2023-01-31T10:15:09;5.30;99.90
14682;DHT22;7429;52.498;13.480;2023-01-31T10:18:27;5.30;99.90
14682;DHT22;7429;52.498;13.480;2023-01-31T10:21:39;5.30;99.90
14682;DHT22;7429;52.498;13.480;2023-01-31T10:24:48;5.40;99.90
14682;DHT22;7429;52.498;13.480;2023-01-31T10:27:59;5.40;99.90
14682;DHT22;7429;52.498;13.480;2023-01-31T10:31:10;5.50;99.90
14682;DHT22;7429;52.498;13.480;2023-01-31T10:34:20;5.40;99.90
14682;DHT22;7429;52.498;13.480;2023-01-31T10:37:31;5.50;99.90
14682;DHT22;7429;52.498;13.480;2023-01-31T10:40:39;5.40;99.90
14682;DHT22;7429;52.498;13.480;2023-01-31T10:43:49;5.50;99.90
14682;DHT22;7429;52.498;13.480;2023-01-31T10:46:57;5.50;99.90
14682;DHT22;7429;52.498;13.480;2023-01-31T10:50:11;5.50;99.90
14682;DHT22;7429;52.498;13.480;2023-01-31T10:53:33;5.40;99.90
14682;DHT22;7429;52.498;13.480;2023-01-31T10:56:41;5.40;99.90
14682;DHT22;7429;52.498;13.480;2023-01-31T10:59:50;5.40;99.90
14682;DHT22;7429;52.498;13.480;2023-01-31T11:02:57;5.40;99.90
14682;DHT22;7429;52.498;13.480;2023-01-31T11:06:00;5.40;99.90
14682;DHT22;7429;52.498;13.480;2023-01-31T11:09:08;5.50;99.90
14682;DHT22;7429;52.498;13.480;2023-01-31T11:12:15;5.60;99.90
14682;DHT22;7429;52.498;13.480;2023-01-31T11:15:23;5.60;99.90
14682;DHT22;7429;52.498;13.480;2023-01-31T11:18:31;5.70;99.90
14682;DHT22;7429;52.498;13.480;2023-01-31T11:21:39;5.70;99.90
14682;DHT22;7429;52.498;13.480;2023-01-31T11:24:46;5.70;99.90
14682;DHT22;7429;52.498;13.480;2023-01-31T11:27:57;5.80;99.90
14682;DHT22;7429;52.498;13.480;2023-01-31T11:31:05;5.70;99.90
14682;DHT22;7429;52.498;13.480;2023-01-31T11:34:18;5.70;99.90
14682;DHT22;7429;52.498;13.480;2023-01-31T11:37:23;5.70;99.90
14682;DHT22;7429;52.498;13.480;2023-01-31T11:40:30;5.80;99.90
14682;DHT22;7429;52.498;13.480;2023-01-31T11:43:34;5.70;99.90
14682;DHT22;7429;52.498;13.480;2023-01-31T11:46:43;5.60;99.90
14682;DHT22;7429;52.498;13.480;2023-01-31T11:49:48;5.60;99.90
14682;DHT22;7429;52.498;13.480;2023-01-31T11:52:56;5.60;99.90
14682;DHT22;7429;52.498;13.480;2023-01-31T11:56:11;5.60;99.90
14682;DHT22;7429;52.498;13.480;2023-01-31T11:59:19;5.60;99.90
14682;DHT22;7429;52.498;13.480;2023-01-31T12:02:29;5.60;99.90
14682;DHT22;7429;52.498;13.480;2023-01-31T12:05:38;5.60;99.90
14682;DHT22;7429;52.498;13.480;2023-01-31T12:09:18;5.70;99.90
14682;DHT22;7429;52.498;13.480;2023-01-31T12:13:28;5.70;99.90
14682;DHT22;7429;52.498;13.480;2023-01-31T12:16:31;5.70;99.90
14682;DHT22;7429;52.498;13.480;2023-01-31T12:19:45;5.60;99.90
14682;DHT22;7429;52.498;13.480;2023-01-31T12:23:09;5.60;99.90
14682;DHT22;7429;52.498;13.480;2023-01-31T12:26:22;5.50;99.90
14682;DHT22;7429;52.498;13.480;2023-01-31T12:29:55;5.50;99.90
14682;DHT22;7429;52.498;13.480;2023-01-31T12:33:21;5.50;99.90
14682;DHT22;7429;52.498;13.480;2023-01-31T12:36:46;5.40;99.90
14682;DHT22;7429;52.498;13.480;2023-01-31T12:40:05;5.40;99.90
14682;DHT22;7429;52.498;13.480;2023-01-31T12:43:42;5.30;99.90
14682;DHT22;7429;52.498;13.480;2023-01-31T12:47:08;5.30;99.90
14682;DHT22;7429;52.498;13.480;2023-01-31T12:50:27;5.20;99.90
14682;DHT22;7429;52.498;13.480;2023-01-31T12:53:50;5.10;99.90
14682;DHT22;7429;52.498;13.480;2023-01-31T12:57:14;5.10;99.90
14682;DHT22;7429;52.498;13.480;2023-01-31T13:00:32;5.10;99.90
14682;DHT22;7429;52.498;13.480;2023-01-31T13:03:54;5.00;99.90
14682;DHT22;7429;52.498;13.480;2023-01-31T13:07:10;5.00;99.90
14682;DHT22;7429;52.498;13.480;2023-01-31T13:10:31;4.90;99.90
14682;DHT22;7429;52.498;13.480;2023-01-31T13:13:44;4.90;99.90
14682;DHT22;7429;52.498;13.480;2023-01-31T13:17:01;4.80;99.90
14682;DHT22;7429;52.498;13.480;2023-01-31T13:20:22;4.90;99.90
14682;DHT22;7429;52.498;13.480;2023-01-31T13:23:34;4.90;99.90
14682;DHT22;7429;52.498;13.480;2023-01-31T13:26:45;4.90;99.90
14682;DHT22;7429;52.498;13.480;2023-01-31T13:29:55;4.80;99.90
14682;DHT22;7429;52.498;13.480;2023-01-31T13:33:04;4.80;99.90
14682;DHT22;7429;52.498;13.480;2023-01-31T13:36:23;4.80;99.90
14682;DHT22;7429;52.498;13.480;2023-01-31T13:39:32;4.80;99.90
14682;DHT22;7429;52.498;13.480;2023-01-31T13:42:39;4.80;99.90
14682;DHT22;7429;52.498;13.480;2023-01-31T13:45:45;4.80;99.90
14682;DHT22;7429;52.498;13.480;2023-01-31T13:48:55;4.80;99.90
14682;DHT22;7429;52.498;13.480;2023-01-31T13:52:08;4.80;99.90
14682;DHT22;7429;52.498;13.480;2023-01-31T13:55:17;4.80;99.90
14682;DHT22;7429;52.498;13.480;2023-01-31T13:58:26;4.90;99.90
14682;DHT22;7429;52.498;13.480;2023-01-31T14:01:33;4.80;99.90
14682;DHT22;7429;52.498;13.480;2023-01-31T14:04:47;4.80;99.90
14682;DHT22;7429;52.498;13.480;2023-01-31T14:08:29;4.90;99.90
14682;DHT22;7429;52.498;13.480;2023-01-31T14:11:44;4.80;99.90
14682;DHT22;7429;52.498;13.480;2023-01-31T14:14:48;4.90;99.90
14682;DHT22;7429;52.498;13.480;2023-01-31T14:18:02;4.90;99.90
14682;DHT22;7429;52.498;13.480;2023-01-31T14:24:58;4.90;99.90
14682;DHT22;7429;52.498;13.480;2023-01-31T14:28:03;4.80;99.90
14682;DHT22;7429;52.498;13.480;2023-01-31T14:31:11;4.90;99.90
14682;DHT22;7429;52.498;13.480;2023-01-31T14:34:21;4.90;99.90
14682;DHT22;7429;52.498;13.480;2023-01-31T14:37:35;4.80;99.90
14682;DHT22;7429;52.498;13.480;2023-01-31T14:40:51;4.90;99.90
14682;DHT22;7429;52.498;13.480;2023-01-31T14:44:08;4.90;99.90
14682;DHT22;7429;52.498;13.480;2023-01-31T14:53:01;4.90;99.90
14682;DHT22;7429;52.498;13.480;2023-01-31T14:56:21;5.00;99.90
14682;DHT22;7429;52.498;13.480;2023-01-31T14:59:51;5.00;99.90
14682;DHT22;7429;52.498;13.480;2023-01-31T15:03:04;5.00;99.90
14682;DHT22;7429;52.498;13.480;2023-01-31T15:06:14;5.10;99.90
14682;DHT22;7429;52.498;13.480;2023-01-31T15:09:36;5.10;99.90
14682;DHT22;7429;52.498;13.480;2023-01-31T15:12:54;5.10;99.90
14682;DHT22;7429;52.498;13.480;2023-01-31T15:16:03;5.10;99.90
14682;DHT22;7429;52.498;13.480;2023-01-31T15:19:11;5.10;99.90
14682;DHT22;7429;52.498;13.480;2023-01-31T15:22:19;5.10;99.90
14682;DHT22;7429;52.498;13.480;2023-01-31T15:25:38;5.20;99.90
14682;DHT22;7429;52.498;13.480;2023-01-31T15:28:46;5.20;99.90
14682;DHT22;7429;52.498;13.480;2023-01-31T15:31:58;5.20;99.90
14682;DHT22;7429;52.498;13.480;2023-01-31T15:35:14;5.30;99.90
14682;DHT22;7429;52.498;13.480;2023-01-31T15:38:25;5.30;99.90
14682;DHT22;7429;52.498;13.480;2023-01-31T15:41:37;5.30;99.90
14682;DHT22;7429;52.498;13.480;2023-01-31T15:44:46;5.30;99.90
14682;DHT22;7429;52.498;13.480;2023-01-31T15:47:56;5.40;99.90
14682;DHT22;7429;52.498;13.480;2023-01-31T15:51:00;5.40;99.90
14682;DHT22;7429;52.498;13.480;2023-01-31T15:54:12;5.50;99.90
14682;DHT22;7429;52.498;13.480;2023-01-31T16:01:47;5.40;99.90
14682;DHT22;7429;52.498;13.480;2023-01-31T16:04:51;5.50;99.90
14682;DHT22;7429;52.498;13.480;2023-01-31T16:07:56;5.40;99.90
14682;DHT22;7429;52.498;13.480;2023-01-31T16:11:00;5.50;99.90
14682;DHT22;7429;52.498;13.480;2023-01-31T16:14:06;5.50;99.90
14682;DHT22;7429;52.498;13.480;2023-01-31T16:17:16;5.50;99.90
14682;DHT22;7429;52.498;13.480;2023-01-31T16:20:42;5.50;99.90
14682;DHT22;7429;52.498;13.480;2023-01-31T16:23:56;5.50;99.90
14682;DHT22;7429;52.498;13.480;2023-01-31T16:27:08;5.60;99.90
14682;DHT22;7429;52.498;13.480;2023-01-31T16:30:17;5.50;99.90
14682;DHT22;7429;52.498;13.480;2023-01-31T16:33:23;5.60;99.90
14682;DHT22;7429;52.498;13.480;2023-01-31T16:36:31;5.60;99.90
14682;DHT22;7429;52.498;13.480;2023-01-31T16:39:38;5.60;99.90
14682;DHT22;7429;52.498;13.480;2023-01-31T16:42:44;5.70;99.90
14682;DHT22;7429;52.498;13.480;2023-01-31T16:45:51;5.70;99.90
14682;DHT22;7429;52.498;13.480;2023-01-31T16:49:04;5.70;99.90
14682;DHT22;7429;52.498;13.480;2023-01-31T16:52:14;5.70;99.90
14682;DHT22;7429;52.498;13.480;2023-01-31T16:55:20;5.70;99.90
14682;DHT22;7429;52.498;13.480;2023-01-31T16:58:43;5.80;99.90
14682;DHT22;7429;52.498;13.480;2023-01-31T17:02:00;5.80;99.90
14682;DHT22;7429;52.498;13.480;2023-01-31T17:05:14;5.80;99.90
14682;DHT22;7429;52.498;13.480;2023-01-31T17:08:21;5.80;99.90
14682;DHT22;7429;52.498;13.480;2023-01-31T17:11:26;5.80;99.90
14682;DHT22;7429;52.498;13.480;2023-01-31T17:15:16;5.80;99.90
14682;DHT22;7429;52.498;13.480;2023-01-31T17:18:21;5.80;99.90
14682;DHT22;7429;52.498;13.480;2023-01-31T17:21:33;5.80;99.90
14682;DHT22;7429;52.498;13.480;2023-01-31T17:24:40;5.80;99.90
14682;DHT22;7429;52.498;13.480;2023-01-31T17:27:45;5.80;99.90
14682;DHT22;7429;52.498;13.480;2023-01-31T17:30:48;5.80;99.90
14682;DHT22;7429;52.498;13.480;2023-01-31T17:33:52;5.80;99.90
14682;DHT22;7429;52.498;13.480;2023-01-31T17:36:59;5.90;99.90
14682;DHT22;7429;52.498;13.480;2023-01-31T17:40:03;5.90;99.90
14682;DHT22;7429;52.498;13.480;2023-01-31T17:43:21;5.90;99.90
14682;DHT22;7429;52.498;13.480;2023-01-31T17:46:25;5.90;99.90
14682;DHT22;7429;52.498;13.480;2023-01-31T17:49:31;5.90;99.90
14682;DHT22;7429;52.498;13.480;2023-01-31T17:52:37;5.90;99.90
14682;DHT22;7429;52.498;13.480;2023-01-31T17:55:42;5.90;99.90
14682;DHT22;7429;52.498;13.480;2023-01-31T17:58:46;5.90;99.90
14682;DHT22;7429;52.498;13.480;2023-01-31T18:01:53;6.00;99.90
14682;DHT22;7429;52.498;13.480;2023-01-31T18:04:57;6.00;99.90
14682;DHT22;7429;52.498;13.480;2023-01-31T18:08:01;6.00;99.90
14682;DHT22;7429;52.498;13.480;2023-01-31T18:11:07;6.00;99.90
14682;DHT22;7429;52.498;13.480;2023-01-31T18:14:12;6.10;99.90
14682;DHT22;7429;52.498;13.480;2023-01-31T18:17:17;6.10;99.90
14682;DHT22;7429;52.498;13.480;2023-01-31T18:20:21;6.10;99.90
14682;DHT22;7429;52.498;13.480;2023-01-31T18:23:26;6.10;99.90
14682;DHT22;7429;52.498;13.480;2023-01-31T18:26:29;6.20;99.90
14682;DHT22;7429;52.498;13.480;2023-01-31T18:29:32;6.20;99.90
14682;DHT22;7429;52.498;13.480;2023-01-31T18:32:35;6.20;99.90
14682;DHT22;7429;52.498;13.480;2023-01-31T18:35:42;6.30;99.90
14682;DHT22;7429;52.498;13.480;2023-01-31T18:38:48;6.30;99.90
14682;DHT22;7429;52.498;13.480;2023-01-31T18:41:52;6.40;99.90
14682;DHT22;7429;52.498;13.480;2023-01-31T18:44:55;6.40;99.90
14682;DHT22;7429;52.498;13.480;2023-01-31T18:47:58;6.40;99.90
14682;DHT22;7429;52.498;13.480;2023-01-31T18:51:03;6.40;99.90
14682;DHT22;7429;52.498;13.480;2023-01-31T18:54:14;6.40;99.90
14682;DHT22;7429;52.498;13.480;2023-01-31T18:57:18;6.50;99.90
14682;DHT22;7429;52.498;13.480;2023-01-31T19:00:25;6.50;99.90
14682;DHT22;7429;52.498;13.480;2023-01-31T19:03:30;6.40;99.90
14682;DHT22;7429;52.498;13.480;2023-01-31T19:06:34;6.50;99.90
14682;DHT22;7429;52.498;13.480;2023-01-31T19:09:42;6.50;99.90
14682;DHT22;7429;52.498;13.480;2023-01-31T19:12:48;6.40;99.90
14682;DHT22;7429;52.498;13.480;2023-01-31T19:15:51;6.50;99.90
14682;DHT22;7429;52.498;13.480;2023-01-31T19:19:01;6.50;99.90
14682;DHT22;7429;52.498;13.480;2023-01-31T19:22:05;6.60;99.90
14682;DHT22;7429;52.498;13.480;2023-01-31T19:25:15;6.60;99.90
14682;DHT22;7429;52.498;13.480;2023-01-31T19:28:19;6.60;99.90
14682;DHT22;7429;52.498;13.480;2023-01-31T19:31:25;6.70;99.90
14682;DHT22;7429;52.498;13.480;2023-01-31T19:34:32;6.40;99.90
14682;DHT22;7429;52.498;13.480;2023-01-31T19:37:37;5.00;99.90
14682;DHT22;7429;52.498;13.480;2023-01-31T19:40:41;4.40;99.90
14682;DHT22;7429;52.498;13.480;2023-01-31T19:43:45;4.30;99.90
14682;DHT22;7429;52.498;13.480;2023-01-31T19:46:50;4.20;99.90
14682;DHT22;7429;52.498;13.480;2023-01-31T19:49:54;4.20;99.90
14682;DHT22;7429;52.498;13.480;2023-01-31T19:52:57;4.30;99.90
14682;DHT22;7429;52.498;13.480;2023-01-31T19:56:02;4.30;99.90
14682;DHT22;7429;52.498;13.480;2023-01-31T19:59:06;4.40;99.90
14682;DHT22;7429;52.498;13.480;2023-01-31T20:02:10;4.40;99.90
14682;DHT22;7429;52.498;13.480;2023-01-31T20:05:43;4.50;99.90
14682;DHT22;7429;52.498;13.480;2023-01-31T20:08:51;4.60;99.90
14682;DHT22;7429;52.498;13.480;2023-01-31T20:11:56;4.60;99.90
14682;DHT22;7429;52.498;13.480;2023-01-31T20:14:59;4.60;99.90
14682;DHT22;7429;52.498;13.480;2023-01-31T20:18:03;4.70;99.90
14682;DHT22;7429;52.498;13.480;2023-01-31T20:21:08;4.70;99.90
14682;DHT22;7429;52.498;13.480;2023-01-31T20:24:15;4.80;99.90
14682;DHT22;7429;52.498;13.480;2023-01-31T20:27:20;4.80;99.90
14682;DHT22;7429;52.498;13.480;2023-01-31T20:30:24;4.80;99.90